Atwater, Minnesota
Current Conditions -  °F | °C
As of 4:33 AM on Saturday 25 Oct 2014 (Local Time) from KLJF Reporting Station
Scattered Clouds Scattered Clouds  
Wind Chill: 55°   Ceiling: Unl
Heat Index: 55°   Visibility: 10mi
Dew Point: 36°   Wind: 9mph
Humidity: 47%   Direction: 300°WNW
Pressure: 30"   Gusts: NA
Location:  45.14°N, 94.78°W
Report Text: KLJF 250933Z AUTO 30008KT 10SM SCT120 13/02 A3000 RMK AO2
Loading
Personal Weather Stations






























Interactive Weather Map New forecast layout! Learn more

10-Day Weather Forecast

Advertisements
Track Severe Weather on mobile